createdAt,value
2022-08-05T00:00:17.746Z,28.76
2022-08-05T00:02:51.584Z,28.73
2022-08-05T00:06:02.039Z,28.73
2022-08-05T00:08:32.912Z,28.66
2022-08-05T00:11:00.746Z,28.67
2022-08-05T00:13:39.237Z,28.61
2022-08-05T00:16:13.736Z,28.62
2022-08-05T00:18:48.413Z,28.49
2022-08-05T00:21:18.922Z,28.46
2022-08-05T00:24:05.066Z,28.39
2022-08-05T00:26:35.450Z,28.34
2022-08-05T00:29:02.515Z,28.33
2022-08-05T00:31:53.084Z,28.18
2022-08-05T00:34:54.967Z,28.13
2022-08-05T00:37:11.392Z,28.09
2022-08-05T00:39:57.163Z,27.96
2022-08-05T00:42:37.357Z,27.82
2022-08-05T00:45:08.768Z,27.76
2022-08-05T00:47:57.187Z,27.72
2022-08-05T00:50:26.020Z,27.69
2022-08-05T00:52:53.578Z,27.59
2022-08-05T00:55:23.422Z,27.55
2022-08-05T00:58:11.555Z,27.48
2022-08-05T01:00:39.649Z,27.39
2022-08-05T01:03:07.617Z,27.40
2022-08-05T01:05:35.305Z,27.39
2022-08-05T01:08:41.774Z,27.39
2022-08-05T01:10:59.503Z,27.27
2022-08-05T01:13:57.358Z,27.20
2022-08-05T01:16:57.091Z,27.07
2022-08-05T01:20:01.022Z,26.92
2022-08-05T01:23:23.393Z,26.97
2022-08-05T01:26:32.507Z,27.00
2022-08-05T01:29:10.994Z,26.93
2022-08-05T01:31:49.720Z,26.94
2022-08-05T01:34:42.867Z,27.01
2022-08-05T01:37:30.250Z,27.04
2022-08-05T01:40:02.585Z,27.05
2022-08-05T01:42:31.289Z,27.04
2022-08-05T01:45:02.326Z,27.03
2022-08-05T01:47:39.719Z,27.02
2022-08-05T01:50:17.703Z,27.03
2022-08-05T01:52:50.087Z,27.05
2022-08-05T01:55:22.307Z,27.07
2022-08-05T01:58:12.974Z,27.13
2022-08-05T02:00:45.443Z,27.17
2022-08-05T02:03:28.884Z,27.20
2022-08-05T02:06:03.604Z,27.20
2022-08-05T02:08:58.294Z,27.20
2022-08-05T02:11:33.503Z,27.17
2022-08-05T02:14:12.750Z,27.18
2022-08-05T02:17:00.104Z,27.17
2022-08-05T02:19:27.455Z,27.15
2022-08-05T02:22:26.604Z,27.12
2022-08-05T02:25:08.537Z,27.07
2022-08-05T02:27:58.389Z,27.09
2022-08-05T02:30:35.188Z,27.11
2022-08-05T02:33:04.744Z,27.08
2022-08-05T02:35:37.822Z,27.04
2022-08-05T02:38:12.453Z,27.02
2022-08-05T02:40:47.599Z,27.00
2022-08-05T02:43:16.844Z,26.99
2022-08-05T02:45:52.912Z,26.99
2022-08-05T02:48:29.022Z,26.94
2022-08-05T02:51:02.604Z,26.88
2022-08-05T02:53:39.312Z,26.71
2022-08-05T02:56:15.942Z,26.54
2022-08-05T02:58:51.293Z,26.56
2022-08-05T03:01:25.029Z,26.51
2022-08-05T03:04:02.934Z,26.51
2022-08-05T03:06:56.735Z,26.50
2022-08-05T03:09:36.039Z,26.53
2022-08-05T03:12:06.248Z,26.51
2022-08-05T03:14:35.373Z,26.47
2022-08-05T03:17:12.865Z,26.32
2022-08-05T03:19:39.809Z,26.38
2022-08-05T03:22:16.277Z,26.38
2022-08-05T03:24:49.590Z,26.37
2022-08-05T03:27:19.650Z,26.34
2022-08-05T03:30:07.250Z,26.35
2022-08-05T03:32:34.798Z,26.37
2022-08-05T03:35:06.146Z,26.36
2022-08-05T03:37:45.961Z,26.33
2022-08-05T03:40:14.665Z,26.20
2022-08-05T03:42:51.944Z,26.25
2022-08-05T03:45:21.626Z,26.27
2022-08-05T03:47:49.423Z,26.26
2022-08-05T03:50:16.442Z,26.26
2022-08-05T03:55:51.627Z,26.23
2022-08-05T03:56:17.201Z,26.23
2022-08-05T03:58:53.446Z,26.17
2022-08-05T04:01:22.794Z,26.15
2022-08-05T04:04:09.196Z,26.15
2022-08-05T04:06:38.364Z,26.12
2022-08-05T04:09:20.223Z,26.12
2022-08-05T04:11:53.455Z,26.11
2022-08-05T04:14:29.949Z,26.04
2022-08-05T04:16:59.994Z,25.94
2022-08-05T04:19:29.578Z,25.77
2022-08-05T04:22:10.163Z,25.57
2022-08-05T04:24:52.978Z,25.27
2022-08-05T04:27:33.320Z,25.05
2022-08-05T04:30:09.460Z,24.83
2022-08-05T04:32:36.870Z,24.63
2022-08-05T04:35:05.857Z,24.48
2022-08-05T04:38:01.232Z,24.32
2022-08-05T04:40:20.368Z,24.18
2022-08-05T04:42:47.364Z,24.09
2022-08-05T04:45:31.140Z,23.95
2022-08-05T04:48:16.313Z,23.86
2022-08-05T04:51:03.698Z,23.76
2022-08-05T04:53:36.136Z,23.69
2022-08-05T04:56:33.983Z,23.58
2022-08-05T04:58:56.648Z,23.48
2022-08-05T05:02:06.396Z,23.42
2022-08-05T05:04:10.872Z,23.31
2022-08-05T05:06:44.287Z,23.23
2022-08-05T05:09:17.312Z,23.16
2022-08-05T05:11:55.616Z,23.10
2022-08-05T05:14:27.691Z,23.05
2022-08-05T05:17:03.329Z,22.99
2022-08-05T05:19:37.249Z,22.95
2022-08-05T05:22:23.796Z,22.91
2022-08-05T05:24:58.536Z,22.89
2022-08-05T05:27:44.969Z,22.87
2022-08-05T05:30:30.802Z,22.83
2022-08-05T05:33:03.492Z,22.82
2022-08-05T05:35:39.579Z,22.83
2022-08-05T05:38:13.726Z,22.82
2022-08-05T05:40:49.492Z,22.83
2022-08-05T05:43:27.614Z,22.82
2022-08-05T05:46:12.248Z,22.83
2022-08-05T05:48:44.464Z,22.89
2022-08-05T05:51:15.549Z,22.97
2022-08-05T05:53:57.921Z,23.02
2022-08-05T05:56:33.110Z,23.09
2022-08-05T05:59:07.723Z,23.19
2022-08-05T06:01:53.854Z,23.26
2022-08-05T06:04:25.079Z,23.34
2022-08-05T06:06:52.211Z,23.42
2022-08-05T06:09:25.703Z,23.48
2022-08-05T06:12:02.907Z,23.49
2022-08-05T06:14:34.881Z,23.56
2022-08-05T06:17:22.109Z,23.57
2022-08-05T06:19:57.150Z,23.57
2022-08-05T06:22:34.031Z,23.59
2022-08-05T06:25:24.233Z,23.59
2022-08-05T06:28:10.410Z,23.56
2022-08-05T06:30:39.191Z,23.55
2022-08-05T06:33:09.956Z,23.47
2022-08-05T06:36:05.677Z,23.45
2022-08-05T06:38:36.283Z,23.47
2022-08-05T06:41:05.494Z,23.50
2022-08-05T06:43:58.298Z,23.55
2022-08-05T06:46:23.944Z,23.62
2022-08-05T06:48:59.736Z,23.69
2022-08-05T06:51:29.553Z,23.77
2022-08-05T06:54:02.923Z,23.83
2022-08-05T06:56:34.380Z,23.90
2022-08-05T06:59:03.181Z,23.94
2022-08-05T07:01:32.650Z,24.02
2022-08-05T07:04:03.291Z,24.08
2022-08-05T07:06:30.465Z,24.10
2022-08-05T07:09:04.155Z,24.17
2022-08-05T07:11:41.263Z,24.23
2022-08-05T07:14:30.283Z,24.33
2022-08-05T07:17:59.724Z,24.54
2022-08-05T07:22:42.043Z,24.61
2022-08-05T07:25:22.870Z,24.71
2022-08-05T07:28:05.361Z,24.82
2022-08-05T07:30:38.752Z,24.96
2022-08-05T07:33:15.910Z,25.06
2022-08-05T07:36:04.400Z,25.11
2022-08-05T07:38:42.779Z,25.18
2022-08-05T07:42:08.710Z,25.34
2022-08-05T07:44:18.750Z,25.40
2022-08-05T07:46:49.628Z,25.45
2022-08-05T07:49:18.663Z,25.48
2022-08-05T07:51:53.452Z,25.55
2022-08-05T07:54:31.391Z,25.68
2022-08-05T07:57:17.891Z,25.69
2022-08-05T07:59:49.507Z,25.76
2022-08-05T08:02:17.998Z,25.83
2022-08-05T08:04:49.604Z,25.93
2022-08-05T08:07:22.396Z,25.94
2022-08-05T08:09:54.980Z,25.96
2022-08-05T08:12:37.143Z,26.06
2022-08-05T08:15:15.456Z,26.12
2022-08-05T08:17:49.921Z,26.20
2022-08-05T08:21:00.666Z,26.24
2022-08-05T08:24:03.224Z,26.29
2022-08-05T08:26:00.740Z,26.30
2022-08-05T08:28:36.293Z,26.33
2022-08-05T08:31:10.026Z,26.37
2022-08-05T08:33:42.183Z,26.38
2022-08-05T08:36:38.898Z,26.38
2022-08-05T08:38:58.237Z,26.44
2022-08-05T08:41:50.697Z,26.51
2022-08-05T08:45:20.709Z,26.57
2022-08-05T08:47:47.576Z,26.63
2022-08-05T08:50:14.636Z,26.76
2022-08-05T08:52:53.858Z,26.84
2022-08-05T08:56:03.077Z,26.83
2022-08-05T08:58:13.191Z,26.86
2022-08-05T09:00:42.644Z,26.79
2022-08-05T09:03:11.619Z,26.78
2022-08-05T09:06:09.071Z,26.79
2022-08-05T09:08:26.586Z,26.85
2022-08-05T09:10:54.575Z,26.89
2022-08-05T09:13:23.610Z,26.92
2022-08-05T09:15:52.272Z,26.97
2022-08-05T09:18:19.906Z,27.02
2022-08-05T09:20:47.094Z,27.05
2022-08-05T09:23:21.569Z,27.10
2022-08-05T09:26:05.818Z,27.15
2022-08-05T09:28:36.769Z,27.13
2022-08-05T09:31:43.805Z,27.15
2022-08-05T09:34:11.626Z,27.18
2022-08-05T09:36:59.741Z,27.19
2022-08-05T09:39:41.649Z,27.23
2022-08-05T09:42:24.177Z,27.25
2022-08-05T09:44:57.400Z,27.27
2022-08-05T09:47:35.184Z,27.31
2022-08-05T09:50:37.780Z,27.49
2022-08-05T09:53:05.950Z,27.61
2022-08-05T09:55:57.571Z,27.72
2022-08-05T09:58:24.828Z,27.84
2022-08-05T10:01:15.133Z,27.96
2022-08-05T10:04:01.979Z,28.03
2022-08-05T10:06:32.099Z,28.10
2022-08-05T10:09:27.509Z,28.22
2022-08-05T10:12:30.629Z,28.31
2022-08-05T10:15:34.309Z,28.42
2022-08-05T10:18:14.602Z,28.52
2022-08-05T10:21:00.051Z,28.63
2022-08-05T10:23:59.467Z,28.70
2022-08-05T10:26:31.724Z,28.83
2022-08-05T10:29:12.795Z,28.90
2022-08-05T10:32:53.045Z,29.06
2022-08-05T10:34:30.033Z,29.21
2022-08-05T10:36:59.207Z,29.45
2022-08-05T10:40:03.447Z,29.67
2022-08-05T10:42:33.837Z,29.89
2022-08-05T10:45:21.195Z,30.05
2022-08-05T10:48:27.575Z,30.21
2022-08-05T10:51:21.913Z,30.34
2022-08-05T10:53:55.766Z,30.44
2022-08-05T10:56:45.415Z,30.52
2022-08-05T11:00:04.122Z,30.60
2022-08-05T11:02:37.847Z,30.70
2022-08-05T11:05:07.321Z,30.82
2022-08-05T11:08:22.190Z,31.06
2022-08-05T11:11:00.876Z,31.20
2022-08-05T11:13:54.734Z,31.35
2022-08-05T11:16:47.713Z,31.52
2022-08-05T11:20:11.435Z,31.67
2022-08-05T11:22:44.722Z,31.78
2022-08-05T11:26:04.109Z,31.92
2022-08-05T11:28:33.695Z,32.06
2022-08-05T11:31:06.470Z,32.14
2022-08-05T11:33:48.924Z,32.30
2022-08-05T11:36:42.806Z,32.33
2022-08-05T11:39:12.079Z,32.43
2022-08-05T11:42:01.601Z,32.50
2022-08-05T11:44:52.705Z,32.57
2022-08-05T11:47:49.011Z,32.64
2022-08-05T11:50:14.127Z,32.72
2022-08-05T11:52:44.113Z,32.72
2022-08-05T11:55:13.714Z,32.70
2022-08-05T11:58:08.335Z,32.75
2022-08-05T12:00:38.036Z,32.78
2022-08-05T12:03:29.177Z,32.90
2022-08-05T12:06:01.683Z,32.94
2022-08-05T12:08:31.703Z,32.94
2022-08-05T12:11:05.894Z,33.00
2022-08-05T12:13:49.376Z,33.03
2022-08-05T12:16:19.475Z,33.08
2022-08-05T12:18:52.316Z,33.11
2022-08-05T12:21:29.828Z,33.16
2022-08-05T12:24:07.056Z,33.13
2022-08-05T12:26:50.113Z,33.01
2022-08-05T12:29:26.238Z,32.92
2022-08-05T12:32:02.097Z,32.88
2022-08-05T12:34:35.840Z,32.89
2022-08-05T12:37:16.956Z,32.84
2022-08-05T12:39:51.374Z,32.89
2022-08-05T12:42:21.167Z,32.78
2022-08-05T12:44:48.549Z,32.72
2022-08-05T12:47:30.483Z,32.68
2022-08-05T12:50:03.936Z,32.68
2022-08-05T12:52:41.787Z,32.66
2022-08-05T12:55:28.588Z,32.57
2022-08-05T12:58:49.054Z,32.54
2022-08-05T13:02:03.964Z,32.57
2022-08-05T13:03:38.965Z,32.54
2022-08-05T13:06:17.288Z,32.46
2022-08-05T13:08:52.117Z,32.47
2022-08-05T13:11:59.852Z,32.41
2022-08-05T13:14:36.171Z,32.26
2022-08-05T13:17:32.052Z,32.26
2022-08-05T13:20:20.376Z,32.06
2022-08-05T13:22:52.995Z,31.94
2022-08-05T13:25:22.193Z,31.97
2022-08-05T13:28:07.863Z,31.98
2022-08-05T13:30:38.963Z,31.95
2022-08-05T13:33:06.270Z,31.88
2022-08-05T13:35:47.229Z,31.59
2022-08-05T13:38:28.129Z,31.51
2022-08-05T13:41:00.112Z,31.48
2022-08-05T13:43:44.046Z,31.42
2022-08-05T13:46:16.111Z,31.32
2022-08-05T13:48:57.793Z,31.25
2022-08-05T13:51:40.184Z,31.21
2022-08-05T13:54:11.939Z,31.19
2022-08-05T13:56:45.497Z,31.18
2022-08-05T13:59:27.348Z,31.16
2022-08-05T14:02:00.460Z,31.16
2022-08-05T14:04:56.263Z,31.09
2022-08-05T14:08:00.367Z,31.07
2022-08-05T14:10:28.898Z,31.13
2022-08-05T14:12:59.365Z,31.16
2022-08-05T14:16:04.633Z,31.12
2022-08-05T14:18:18.168Z,31.17
2022-08-05T14:20:54.383Z,31.17
2022-08-05T14:23:24.551Z,31.15
2022-08-05T14:25:57.949Z,31.27
2022-08-05T14:28:30.614Z,31.27
2022-08-05T14:30:59.405Z,31.25
2022-08-05T14:33:27.930Z,31.26
2022-08-05T14:36:14.859Z,31.35
2022-08-05T14:38:42.403Z,31.38
2022-08-05T14:41:11.699Z,31.32
2022-08-05T14:44:00.194Z,31.30
2022-08-05T14:46:29.794Z,31.20
2022-08-05T14:49:06.734Z,31.15
2022-08-05T14:51:37.630Z,31.09
2022-08-05T14:54:28.097Z,31.06
2022-08-05T14:56:54.809Z,31.00
2022-08-05T14:59:22.178Z,30.88
2022-08-05T15:01:50.214Z,30.86
2022-08-05T15:04:22.444Z,30.74
2022-08-05T15:06:51.439Z,30.72
2022-08-05T15:09:51.236Z,30.74
2022-08-05T15:12:08.884Z,30.63
2022-08-05T15:14:42.200Z,30.58
2022-08-05T15:17:45.656Z,30.49
2022-08-05T15:20:06.173Z,30.39
2022-08-05T15:22:35.918Z,30.40
2022-08-05T15:25:13.607Z,30.25
2022-08-05T15:30:11.313Z,30.07
2022-08-05T15:34:04.283Z,29.95
2022-08-05T15:35:11.609Z,29.78
2022-08-05T15:41:04.523Z,29.62
2022-08-05T15:44:28.043Z,29.55
2022-08-05T15:47:32.397Z,29.37
2022-08-05T15:50:04.027Z,29.38
2022-08-05T15:52:52.901Z,29.32
2022-08-05T15:55:19.991Z,29.32
2022-08-05T15:57:52.669Z,29.26
2022-08-05T16:00:30.483Z,29.18
2022-08-05T16:03:08.176Z,29.08
2022-08-05T16:05:35.517Z,29.00
2022-08-05T16:08:06.076Z,28.95
2022-08-05T16:10:33.085Z,28.93
2022-08-05T16:13:00.061Z,28.86
2022-08-05T16:15:32.303Z,28.67
2022-08-05T16:18:00.876Z,28.52
2022-08-05T16:20:31.569Z,28.53
2022-08-05T16:22:59.619Z,28.43
2022-08-05T16:25:33.930Z,28.36
2022-08-05T16:28:10.453Z,28.22
2022-08-05T16:30:37.776Z,28.16
2022-08-05T16:33:04.855Z,28.18
2022-08-05T16:35:33.668Z,28.14
2022-08-05T16:38:23.809Z,28.13
2022-08-05T16:40:59.879Z,28.10
2022-08-05T16:43:35.535Z,27.93
2022-08-05T16:46:12.688Z,27.81
2022-08-05T16:48:52.075Z,27.64
2022-08-05T16:51:23.244Z,27.48
2022-08-05T16:54:04.956Z,27.32
2022-08-05T16:56:36.848Z,27.38
2022-08-05T16:59:14.689Z,27.38
2022-08-05T17:01:54.718Z,27.38
2022-08-05T17:04:28.264Z,27.26
2022-08-05T17:07:01.066Z,27.22
2022-08-05T17:09:57.678Z,27.19
2022-08-05T17:12:18.447Z,27.07
2022-08-05T17:14:49.887Z,27.10
2022-08-05T17:17:17.015Z,27.15
2022-08-05T17:19:46.772Z,26.99
2022-08-05T17:22:25.576Z,26.86
2022-08-05T17:25:00.115Z,26.69
2022-08-05T17:27:33.514Z,26.69
2022-08-05T17:30:11.913Z,26.50
2022-08-05T17:32:46.145Z,26.43
2022-08-05T17:35:15.693Z,26.35
2022-08-05T17:37:48.578Z,26.27
2022-08-05T17:40:17.621Z,26.12
2022-08-05T17:42:51.111Z,26.08
2022-08-05T17:45:22.144Z,25.88
2022-08-05T17:47:55.997Z,25.90
2022-08-05T17:50:30.343Z,25.79
2022-08-05T17:53:00.784Z,25.71
2022-08-05T17:55:37.618Z,25.62
2022-08-05T17:58:12.225Z,25.44
2022-08-05T18:00:47.109Z,25.38
2022-08-05T18:03:56.315Z,25.31
2022-08-05T18:06:12.254Z,25.19
2022-08-05T18:08:45.726Z,25.23
2022-08-05T18:11:24.841Z,25.19
2022-08-05T18:14:03.429Z,25.08
2022-08-05T18:16:32.698Z,24.93
2022-08-05T18:18:59.677Z,24.89
2022-08-05T18:21:28.109Z,24.75
2022-08-05T18:24:14.457Z,24.66
2022-08-05T18:26:41.772Z,24.58
2022-08-05T18:29:10.843Z,24.53
2022-08-05T18:31:38.368Z,24.41
2022-08-05T18:34:12.625Z,24.44
2022-08-05T18:36:39.885Z,24.30
2022-08-05T18:39:09.783Z,24.27
2022-08-05T18:42:04.764Z,24.30
2022-08-05T18:44:35.539Z,24.13
2022-08-05T18:47:18.828Z,24.10
2022-08-05T18:50:10.607Z,24.10
2022-08-05T18:52:41.719Z,23.96
2022-08-05T18:55:19.589Z,23.87
2022-08-05T18:57:52.800Z,23.85
2022-08-05T19:00:29.246Z,23.89
2022-08-05T19:03:04.157Z,23.86
2022-08-05T19:06:12.306Z,23.82
2022-08-05T19:08:21.646Z,23.73
2022-08-05T19:10:49.952Z,23.72
2022-08-05T19:13:18.161Z,23.71
2022-08-05T19:15:57.819Z,23.67
2022-08-05T19:18:27.924Z,23.63
2022-08-05T19:20:55.729Z,23.58
2022-08-05T19:24:07.163Z,23.55
2022-08-05T19:26:11.191Z,23.54
2022-08-05T19:28:43.690Z,23.54
2022-08-05T19:31:13.276Z,23.54
2022-08-05T19:33:47.948Z,23.53
2022-08-05T19:36:23.964Z,23.55
2022-08-05T19:38:52.821Z,23.55
2022-08-05T19:41:22.208Z,23.57
2022-08-05T19:44:13.268Z,23.54
2022-08-05T19:46:43.705Z,23.58
2022-08-05T19:49:16.412Z,23.59
2022-08-05T19:52:08.924Z,23.60
2022-08-05T19:54:31.930Z,23.60
2022-08-05T19:57:09.167Z,23.60
2022-08-05T19:59:59.369Z,23.61
2022-08-05T20:02:28.002Z,23.58
2022-08-05T20:04:58.422Z,23.58
2022-08-05T20:07:47.529Z,23.57
2022-08-05T20:10:16.933Z,23.55
2022-08-05T20:12:47.819Z,23.52
2022-08-05T20:15:48.077Z,23.48
2022-08-05T20:18:10.723Z,23.45
2022-08-05T20:20:56.730Z,23.42
2022-08-05T20:23:40.526Z,23.39
2022-08-05T20:26:15.203Z,23.31
2022-08-05T20:28:50.508Z,23.32
2022-08-05T20:31:21.653Z,23.31
2022-08-05T20:33:51.019Z,23.28
2022-08-05T20:36:18.976Z,23.25
2022-08-05T20:38:53.294Z,23.23
2022-08-05T20:41:27.553Z,23.19
2022-08-05T20:44:19.387Z,23.11
2022-08-05T20:47:03.231Z,23.07
2022-08-05T20:49:37.920Z,23.03
2022-08-05T20:52:08.493Z,23.01
2022-08-05T20:54:55.391Z,22.97
2022-08-05T20:57:41.959Z,22.93
2022-08-05T21:00:35.103Z,22.92
2022-08-05T21:03:04.486Z,22.91
2022-08-05T21:05:47.526Z,22.87
2022-08-05T21:08:26.890Z,22.84
2022-08-05T21:11:12.851Z,22.81
2022-08-05T21:13:59.455Z,22.79
2022-08-05T21:16:29.904Z,22.74
2022-08-05T21:19:01.961Z,22.70
2022-08-05T21:21:39.670Z,22.66
2022-08-05T21:24:17.266Z,22.62
2022-08-05T21:26:53.543Z,22.57
2022-08-05T21:29:31.982Z,22.53
2022-08-05T21:32:03.468Z,22.51
2022-08-05T21:34:31.617Z,22.46
2022-08-05T21:37:00.275Z,22.41
2022-08-05T21:39:28.014Z,22.38
2022-08-05T21:42:01.857Z,22.34
2022-08-05T21:44:31.037Z,22.29
2022-08-05T21:46:59.768Z,22.24
2022-08-05T21:49:48.115Z,22.21
2022-08-05T21:52:27.549Z,22.18
2022-08-05T21:54:57.040Z,22.14
2022-08-05T21:57:32.536Z,22.15
2022-08-05T22:00:05.942Z,22.11
2022-08-05T22:02:41.719Z,22.17
2022-08-05T22:05:11.222Z,22.18
2022-08-05T22:07:59.002Z,22.17
2022-08-05T22:10:29.651Z,22.20
2022-08-05T22:14:06.191Z,22.25
2022-08-05T22:16:00.411Z,22.26
2022-08-05T22:18:34.437Z,22.11
2022-08-05T22:21:04.766Z,22.12
2022-08-05T22:24:03.171Z,22.06
2022-08-05T22:26:54.159Z,21.99
2022-08-05T22:29:26.150Z,21.94
2022-08-05T22:31:55.337Z,21.89
2022-08-05T22:34:28.932Z,21.83
2022-08-05T22:36:58.512Z,21.79
2022-08-05T22:39:32.747Z,21.76
2022-08-05T22:42:12.715Z,21.76
2022-08-05T22:44:53.475Z,21.73
2022-08-05T22:47:29.464Z,21.68
2022-08-05T22:50:20.258Z,21.65
2022-08-05T22:52:49.833Z,21.62
2022-08-05T22:55:21.460Z,21.57
2022-08-05T22:57:53.055Z,21.48
2022-08-05T23:00:22.151Z,21.47
2022-08-05T23:02:52.019Z,21.40
2022-08-05T23:05:22.000Z,21.42
2022-08-05T23:07:50.855Z,21.40
2022-08-05T23:10:20.666Z,21.39
2022-08-05T23:12:55.121Z,21.36
2022-08-05T23:15:28.990Z,21.36
2022-08-05T23:18:00.761Z,21.32
2022-08-05T23:20:32.413Z,21.30
2022-08-05T23:23:00.213Z,21.27
2022-08-05T23:25:52.477Z,21.27
2022-08-05T23:28:20.956Z,21.23
2022-08-05T23:30:53.298Z,21.21
2022-08-05T23:33:26.487Z,21.23
2022-08-05T23:36:10.453Z,21.23
2022-08-05T23:38:38.318Z,21.22
2022-08-05T23:41:05.507Z,21.20
2022-08-05T23:43:37.195Z,21.17
2022-08-05T23:46:21.966Z,21.15
2022-08-05T23:49:01.228Z,21.16
2022-08-05T23:51:54.343Z,21.12
2022-08-05T23:54:33.954Z,21.11
2022-08-05T23:57:04.782Z,21.01
